sensor_id;sensor_type;location;lat;lon;timestamp;P1;durP1;ratioP1;P2;durP2;ratioP2
76409;SDS011;65238;42.662;23.280;2024-01-11T00:00:42;65.85;;;23.58;;
76409;SDS011;65238;42.662;23.280;2024-01-11T00:03:08;64.30;;;24.90;;
76409;SDS011;65238;42.662;23.280;2024-01-11T00:05:34;69.68;;;27.40;;
76409;SDS011;65238;42.662;23.280;2024-01-11T00:08:00;78.50;;;30.88;;
76409;SDS011;65238;42.662;23.280;2024-01-11T00:10:25;80.32;;;31.23;;
76409;SDS011;65238;42.662;23.280;2024-01-11T00:12:51;74.93;;;31.05;;
76409;SDS011;65238;42.662;23.280;2024-01-11T00:15:17;69.15;;;29.70;;
76409;SDS011;65238;42.662;23.280;2024-01-11T00:17:43;68.53;;;28.38;;
76409;SDS011;65238;42.662;23.280;2024-01-11T00:20:09;67.20;;;26.55;;
76409;SDS011;65238;42.662;23.280;2024-01-11T00:22:35;64.47;;;25.95;;
76409;SDS011;65238;42.662;23.280;2024-01-11T00:25:01;66.35;;;27.23;;
76409;SDS011;65238;42.662;23.280;2024-01-11T00:27:27;65.45;;;27.00;;
76409;SDS011;65238;42.662;23.280;2024-01-11T00:29:53;59.80;;;25.45;;
76409;SDS011;65238;42.662;23.280;2024-01-11T00:32:18;54.75;;;23.17;;
76409;SDS011;65238;42.662;23.280;2024-01-11T00:34:46;58.30;;;25.50;;
76409;SDS011;65238;42.662;23.280;2024-01-11T00:37:12;62.25;;;25.23;;
76409;SDS011;65238;42.662;23.280;2024-01-11T00:39:38;59.40;;;24.90;;
76409;SDS011;65238;42.662;23.280;2024-01-11T00:42:03;58.70;;;26.17;;
76409;SDS011;65238;42.662;23.280;2024-01-11T00:44:29;59.88;;;26.00;;
76409;SDS011;65238;42.662;23.280;2024-01-11T00:46:55;51.53;;;23.52;;
76409;SDS011;65238;42.662;23.280;2024-01-11T00:49:20;52.67;;;24.38;;
76409;SDS011;65238;42.662;23.280;2024-01-11T00:51:46;60.65;;;26.40;;
76409;SDS011;65238;42.662;23.280;2024-01-11T00:54:12;64.70;;;27.20;;
76409;SDS011;65238;42.662;23.280;2024-01-11T00:56:38;70.20;;;28.83;;
76409;SDS011;65238;42.662;23.280;2024-01-11T00:59:03;80.57;;;31.88;;
76409;SDS011;65238;42.662;23.280;2024-01-11T01:01:29;73.13;;;28.55;;
76409;SDS011;65238;42.662;23.280;2024-01-11T01:03:55;77.85;;;27.00;;
76409;SDS011;65238;42.662;23.280;2024-01-11T01:06:20;69.15;;;25.00;;
76409;SDS011;65238;42.662;23.280;2024-01-11T01:08:46;57.55;;;23.85;;
76409;SDS011;65238;42.662;23.280;2024-01-11T01:11:12;55.20;;;24.83;;
76409;SDS011;65238;42.662;23.280;2024-01-11T01:13:37;61.55;;;25.45;;
76409;SDS011;65238;42.662;23.280;2024-01-11T01:16:03;65.93;;;27.48;;
76409;SDS011;65238;42.662;23.280;2024-01-11T01:18:29;63.83;;;29.27;;
76409;SDS011;65238;42.662;23.280;2024-01-11T01:20:54;65.45;;;28.60;;
76409;SDS011;65238;42.662;23.280;2024-01-11T01:23:20;63.55;;;26.13;;
76409;SDS011;65238;42.662;23.280;2024-01-11T01:25:49;60.65;;;26.08;;
76409;SDS011;65238;42.662;23.280;2024-01-11T01:28:14;56.83;;;22.83;;
76409;SDS011;65238;42.662;23.280;2024-01-11T01:30:40;65.10;;;25.00;;
76409;SDS011;65238;42.662;23.280;2024-01-11T01:33:05;62.53;;;24.35;;
76409;SDS011;65238;42.662;23.280;2024-01-11T01:35:31;60.33;;;26.08;;
76409;SDS011;65238;42.662;23.280;2024-01-11T01:37:58;57.55;;;25.48;;
76409;SDS011;65238;42.662;23.280;2024-01-11T01:40:24;56.42;;;24.45;;
76409;SDS011;65238;42.662;23.280;2024-01-11T01:42:49;52.72;;;20.25;;
76409;SDS011;65238;42.662;23.280;2024-01-11T01:45:15;52.47;;;21.60;;
76409;SDS011;65238;42.662;23.280;2024-01-11T01:47:42;55.78;;;22.27;;
76409;SDS011;65238;42.662;23.280;2024-01-11T01:50:07;56.05;;;22.75;;
76409;SDS011;65238;42.662;23.280;2024-01-11T01:52:35;48.00;;;20.65;;
76409;SDS011;65238;42.662;23.280;2024-01-11T01:55:02;40.65;;;18.70;;
76409;SDS011;65238;42.662;23.280;2024-01-11T01:57:29;38.42;;;16.38;;
76409;SDS011;65238;42.662;23.280;2024-01-11T01:59:55;41.90;;;15.07;;
76409;SDS011;65238;42.662;23.280;2024-01-11T02:02:21;37.15;;;14.35;;
76409;SDS011;65238;42.662;23.280;2024-01-11T02:04:47;41.65;;;15.15;;
76409;SDS011;65238;42.662;23.280;2024-01-11T02:07:12;40.08;;;16.73;;
76409;SDS011;65238;42.662;23.280;2024-01-11T02:09:39;38.97;;;15.75;;
76409;SDS011;65238;42.662;23.280;2024-01-11T02:12:05;35.17;;;15.32;;
76409;SDS011;65238;42.662;23.280;2024-01-11T02:14:31;41.38;;;17.90;;
76409;SDS011;65238;42.662;23.280;2024-01-11T02:16:57;35.17;;;15.55;;
76409;SDS011;65238;42.662;23.280;2024-01-11T02:19:22;38.20;;;16.08;;
76409;SDS011;65238;42.662;23.280;2024-01-11T02:21:48;38.88;;;16.48;;
76409;SDS011;65238;42.662;23.280;2024-01-11T02:24:15;34.60;;;15.48;;
76409;SDS011;65238;42.662;23.280;2024-01-11T02:26:59;35.58;;;16.08;;
76409;SDS011;65238;42.662;23.280;2024-01-11T02:29:27;39.03;;;18.55;;
76409;SDS011;65238;42.662;23.280;2024-01-11T02:31:54;44.97;;;19.95;;
76409;SDS011;65238;42.662;23.280;2024-01-11T02:34:23;43.80;;;17.80;;
76409;SDS011;65238;42.662;23.280;2024-01-11T02:36:50;48.92;;;19.75;;
76409;SDS011;65238;42.662;23.280;2024-01-11T02:39:16;40.55;;;18.27;;
76409;SDS011;65238;42.662;23.280;2024-01-11T02:41:43;46.75;;;19.88;;
76409;SDS011;65238;42.662;23.280;2024-01-11T02:44:09;49.03;;;21.20;;
76409;SDS011;65238;42.662;23.280;2024-01-11T02:46:34;55.28;;;22.08;;
76409;SDS011;65238;42.662;23.280;2024-01-11T02:49:00;60.47;;;24.10;;
76409;SDS011;65238;42.662;23.280;2024-01-11T02:51:25;69.40;;;26.55;;
76409;SDS011;65238;42.662;23.280;2024-01-11T02:53:51;66.05;;;27.00;;
76409;SDS011;65238;42.662;23.280;2024-01-11T02:56:16;73.75;;;28.60;;
76409;SDS011;65238;42.662;23.280;2024-01-11T02:58:42;66.53;;;24.73;;
76409;SDS011;65238;42.662;23.280;2024-01-11T03:01:07;59.83;;;23.60;;
76409;SDS011;65238;42.662;23.280;2024-01-11T03:03:33;60.78;;;24.20;;
76409;SDS011;65238;42.662;23.280;2024-01-11T03:05:59;52.97;;;21.85;;
76409;SDS011;65238;42.662;23.280;2024-01-11T03:08:25;44.85;;;19.63;;
76409;SDS011;65238;42.662;23.280;2024-01-11T03:10:51;52.78;;;21.52;;
76409;SDS011;65238;42.662;23.280;2024-01-11T03:13:17;50.88;;;22.85;;
76409;SDS011;65238;42.662;23.280;2024-01-11T03:15:43;62.38;;;24.88;;
76409;SDS011;65238;42.662;23.280;2024-01-11T03:18:09;61.50;;;25.27;;
76409;SDS011;65238;42.662;23.280;2024-01-11T03:20:34;58.45;;;24.63;;
76409;SDS011;65238;42.662;23.280;2024-01-11T03:23:00;63.90;;;24.73;;
76409;SDS011;65238;42.662;23.280;2024-01-11T03:25:29;97.18;;;33.35;;
76409;SDS011;65238;42.662;23.280;2024-01-11T03:27:55;86.40;;;32.20;;
76409;SDS011;65238;42.662;23.280;2024-01-11T03:30:20;77.57;;;29.48;;
76409;SDS011;65238;42.662;23.280;2024-01-11T03:32:46;67.70;;;26.95;;
76409;SDS011;65238;42.662;23.280;2024-01-11T03:35:11;60.67;;;24.33;;
76409;SDS011;65238;42.662;23.280;2024-01-11T03:37:38;58.97;;;23.95;;
76409;SDS011;65238;42.662;23.280;2024-01-11T03:40:04;55.17;;;22.90;;
76409;SDS011;65238;42.662;23.280;2024-01-11T03:42:30;49.10;;;21.15;;
76409;SDS011;65238;42.662;23.280;2024-01-11T03:44:55;47.38;;;21.85;;
76409;SDS011;65238;42.662;23.280;2024-01-11T03:47:21;52.08;;;21.15;;
76409;SDS011;65238;42.662;23.280;2024-01-11T03:49:47;49.15;;;22.20;;
76409;SDS011;65238;42.662;23.280;2024-01-11T03:52:12;54.72;;;24.58;;
76409;SDS011;65238;42.662;23.280;2024-01-11T03:54:38;83.70;;;32.97;;
76409;SDS011;65238;42.662;23.280;2024-01-11T03:57:03;78.68;;;30.50;;
76409;SDS011;65238;42.662;23.280;2024-01-11T03:59:29;60.08;;;26.35;;
76409;SDS011;65238;42.662;23.280;2024-01-11T04:01:55;52.65;;;23.73;;
76409;SDS011;65238;42.662;23.280;2024-01-11T04:04:21;53.40;;;22.92;;
76409;SDS011;65238;42.662;23.280;2024-01-11T04:06:47;60.47;;;24.73;;
76409;SDS011;65238;42.662;23.280;2024-01-11T04:09:13;65.10;;;25.17;;
76409;SDS011;65238;42.662;23.280;2024-01-11T04:11:39;77.65;;;28.88;;
76409;SDS011;65238;42.662;23.280;2024-01-11T04:14:05;71.55;;;28.77;;
76409;SDS011;65238;42.662;23.280;2024-01-11T04:16:31;68.82;;;27.50;;
76409;SDS011;65238;42.662;23.280;2024-01-11T04:18:57;65.28;;;27.40;;
76409;SDS011;65238;42.662;23.280;2024-01-11T04:21:26;67.97;;;25.70;;
76409;SDS011;65238;42.662;23.280;2024-01-11T04:23:55;64.50;;;26.08;;
76409;SDS011;65238;42.662;23.280;2024-01-11T04:26:21;70.63;;;28.33;;
76409;SDS011;65238;42.662;23.280;2024-01-11T04:28:47;65.32;;;25.77;;
76409;SDS011;65238;42.662;23.280;2024-01-11T04:31:14;99.30;;;34.95;;
76409;SDS011;65238;42.662;23.280;2024-01-11T04:33:41;108.50;;;40.42;;
76409;SDS011;65238;42.662;23.280;2024-01-11T04:36:08;129.15;;;42.97;;
76409;SDS011;65238;42.662;23.280;2024-01-11T04:38:33;171.60;;;57.55;;
76409;SDS011;65238;42.662;23.280;2024-01-11T04:40:59;144.77;;;45.88;;
76409;SDS011;65238;42.662;23.280;2024-01-11T04:43:25;144.30;;;50.72;;
76409;SDS011;65238;42.662;23.280;2024-01-11T04:45:51;117.28;;;41.58;;
76409;SDS011;65238;42.662;23.280;2024-01-11T04:48:17;90.50;;;34.15;;
76409;SDS011;65238;42.662;23.280;2024-01-11T04:50:43;82.72;;;31.60;;
76409;SDS011;65238;42.662;23.280;2024-01-11T04:53:09;77.68;;;31.83;;
76409;SDS011;65238;42.662;23.280;2024-01-11T04:55:35;71.13;;;30.58;;
76409;SDS011;65238;42.662;23.280;2024-01-11T04:58:00;66.88;;;28.88;;
76409;SDS011;65238;42.662;23.280;2024-01-11T05:00:26;66.78;;;28.52;;
76409;SDS011;65238;42.662;23.280;2024-01-11T05:02:51;64.55;;;27.77;;
76409;SDS011;65238;42.662;23.280;2024-01-11T05:05:17;74.95;;;32.40;;
76409;SDS011;65238;42.662;23.280;2024-01-11T05:07:43;63.03;;;29.13;;
76409;SDS011;65238;42.662;23.280;2024-01-11T05:10:08;74.05;;;29.67;;
76409;SDS011;65238;42.662;23.280;2024-01-11T05:12:34;67.55;;;31.77;;
76409;SDS011;65238;42.662;23.280;2024-01-11T05:15:01;75.47;;;32.03;;
76409;SDS011;65238;42.662;23.280;2024-01-11T05:17:28;75.35;;;32.00;;
76409;SDS011;65238;42.662;23.280;2024-01-11T05:19:53;68.72;;;29.80;;
76409;SDS011;65238;42.662;23.280;2024-01-11T05:22:19;75.55;;;31.02;;
76409;SDS011;65238;42.662;23.280;2024-01-11T05:24:44;65.22;;;28.70;;
76409;SDS011;65238;42.662;23.280;2024-01-11T05:27:10;73.40;;;30.50;;
76409;SDS011;65238;42.662;23.280;2024-01-11T05:29:36;67.72;;;28.70;;
76409;SDS011;65238;42.662;23.280;2024-01-11T05:32:02;76.15;;;29.70;;
76409;SDS011;65238;42.662;23.280;2024-01-11T05:34:27;70.18;;;30.48;;
76409;SDS011;65238;42.662;23.280;2024-01-11T05:36:53;71.97;;;28.55;;
76409;SDS011;65238;42.662;23.280;2024-01-11T05:39:18;72.25;;;30.42;;
76409;SDS011;65238;42.662;23.280;2024-01-11T05:41:44;80.22;;;32.70;;
76409;SDS011;65238;42.662;23.280;2024-01-11T05:44:10;75.78;;;31.95;;
76409;SDS011;65238;42.662;23.280;2024-01-11T05:46:35;74.50;;;32.17;;
76409;SDS011;65238;42.662;23.280;2024-01-11T05:49:01;79.70;;;33.35;;
76409;SDS011;65238;42.662;23.280;2024-01-11T05:51:27;72.28;;;31.67;;
76409;SDS011;65238;42.662;23.280;2024-01-11T05:53:53;71.03;;;31.48;;
76409;SDS011;65238;42.662;23.280;2024-01-11T05:56:18;74.57;;;31.08;;
76409;SDS011;65238;42.662;23.280;2024-01-11T05:58:45;77.20;;;33.83;;
76409;SDS011;65238;42.662;23.280;2024-01-11T06:01:11;80.55;;;34.67;;
76409;SDS011;65238;42.662;23.280;2024-01-11T06:03:37;79.38;;;34.85;;
76409;SDS011;65238;42.662;23.280;2024-01-11T06:06:03;84.38;;;36.72;;
76409;SDS011;65238;42.662;23.280;2024-01-11T06:08:30;77.90;;;33.35;;
76409;SDS011;65238;42.662;23.280;2024-01-11T06:10:56;80.47;;;34.67;;
76409;SDS011;65238;42.662;23.280;2024-01-11T06:13:21;78.75;;;33.17;;
76409;SDS011;65238;42.662;23.280;2024-01-11T06:15:47;76.85;;;33.35;;
76409;SDS011;65238;42.662;23.280;2024-01-11T06:18:12;74.43;;;32.78;;
76409;SDS011;65238;42.662;23.280;2024-01-11T06:20:38;82.05;;;34.85;;
76409;SDS011;65238;42.662;23.280;2024-01-11T06:23:04;79.78;;;33.00;;
76409;SDS011;65238;42.662;23.280;2024-01-11T06:25:29;76.95;;;32.33;;
76409;SDS011;65238;42.662;23.280;2024-01-11T06:27:55;76.07;;;32.58;;
76409;SDS011;65238;42.662;23.280;2024-01-11T06:30:20;77.32;;;33.58;;
76409;SDS011;65238;42.662;23.280;2024-01-11T06:32:46;79.78;;;35.35;;
76409;SDS011;65238;42.662;23.280;2024-01-11T06:35:11;91.53;;;38.00;;
76409;SDS011;65238;42.662;23.280;2024-01-11T06:37:37;80.43;;;36.55;;
76409;SDS011;65238;42.662;23.280;2024-01-11T06:40:03;118.45;;;45.88;;
76409;SDS011;65238;42.662;23.280;2024-01-11T06:42:33;114.05;;;46.83;;
76409;SDS011;65238;42.662;23.280;2024-01-11T06:44:58;106.47;;;41.28;;
76409;SDS011;65238;42.662;23.280;2024-01-11T06:47:24;90.97;;;36.83;;
76409;SDS011;65238;42.662;23.280;2024-01-11T06:49:50;67.53;;;28.73;;
76409;SDS011;65238;42.662;23.280;2024-01-11T06:52:16;72.55;;;31.33;;
76409;SDS011;65238;42.662;23.280;2024-01-11T06:54:41;64.93;;;27.50;;
76409;SDS011;65238;42.662;23.280;2024-01-11T06:57:07;61.10;;;26.40;;
76409;SDS011;65238;42.662;23.280;2024-01-11T06:59:33;56.90;;;25.83;;
76409;SDS011;65238;42.662;23.280;2024-01-11T07:01:58;57.95;;;25.65;;
76409;SDS011;65238;42.662;23.280;2024-01-11T07:04:24;55.58;;;25.00;;
76409;SDS011;65238;42.662;23.280;2024-01-11T07:06:49;57.80;;;24.98;;
76409;SDS011;65238;42.662;23.280;2024-01-11T07:09:15;53.40;;;22.90;;
76409;SDS011;65238;42.662;23.280;2024-01-11T07:11:44;54.50;;;22.88;;
76409;SDS011;65238;42.662;23.280;2024-01-11T07:14:09;61.25;;;25.08;;
76409;SDS011;65238;42.662;23.280;2024-01-11T07:19:06;52.78;;;24.58;;
76409;SDS011;65238;42.662;23.280;2024-01-11T07:21:32;54.50;;;24.35;;
76409;SDS011;65238;42.662;23.280;2024-01-11T07:23:58;57.40;;;24.10;;
76409;SDS011;65238;42.662;23.280;2024-01-11T07:26:24;63.15;;;25.95;;
76409;SDS011;65238;42.662;23.280;2024-01-11T07:28:50;58.80;;;23.20;;
76409;SDS011;65238;42.662;23.280;2024-01-11T07:31:15;57.33;;;24.63;;
76409;SDS011;65238;42.662;23.280;2024-01-11T07:33:41;56.55;;;23.60;;
76409;SDS011;65238;42.662;23.280;2024-01-11T07:36:07;57.50;;;24.75;;
76409;SDS011;65238;42.662;23.280;2024-01-11T07:38:34;59.40;;;25.88;;
76409;SDS011;65238;42.662;23.280;2024-01-11T07:41:00;59.10;;;24.73;;
76409;SDS011;65238;42.662;23.280;2024-01-11T07:43:26;62.65;;;27.42;;
76409;SDS011;65238;42.662;23.280;2024-01-11T07:45:53;68.80;;;28.65;;
76409;SDS011;65238;42.662;23.280;2024-01-11T07:48:21;60.00;;;29.17;;
76409;SDS011;65238;42.662;23.280;2024-01-11T07:50:48;62.75;;;27.95;;
76409;SDS011;65238;42.662;23.280;2024-01-11T07:53:13;62.63;;;27.00;;
76409;SDS011;65238;42.662;23.280;2024-01-11T07:55:40;54.55;;;25.13;;
76409;SDS011;65238;42.662;23.280;2024-01-11T07:58:05;56.92;;;26.73;;
76409;SDS011;65238;42.662;23.280;2024-01-11T08:00:31;49.30;;;23.58;;
76409;SDS011;65238;42.662;23.280;2024-01-11T08:02:57;61.08;;;23.77;;
76409;SDS011;65238;42.662;23.280;2024-01-11T08:05:23;47.90;;;21.00;;
76409;SDS011;65238;42.662;23.280;2024-01-11T08:07:48;58.75;;;25.15;;
76409;SDS011;65238;42.662;23.280;2024-01-11T08:10:17;53.17;;;25.33;;
76409;SDS011;65238;42.662;23.280;2024-01-11T08:12:42;52.20;;;22.80;;
76409;SDS011;65238;42.662;23.280;2024-01-11T08:15:08;59.22;;;26.00;;
76409;SDS011;65238;42.662;23.280;2024-01-11T08:17:38;56.95;;;25.88;;
76409;SDS011;65238;42.662;23.280;2024-01-11T08:20:09;66.25;;;26.83;;
76409;SDS011;65238;42.662;23.280;2024-01-11T08:22:36;54.72;;;25.67;;
76409;SDS011;65238;42.662;23.280;2024-01-11T08:25:04;64.60;;;27.25;;
76409;SDS011;65238;42.662;23.280;2024-01-11T08:27:33;59.53;;;26.42;;
76409;SDS011;65238;42.662;23.280;2024-01-11T08:29:59;57.80;;;26.30;;
76409;SDS011;65238;42.662;23.280;2024-01-11T08:32:29;59.45;;;26.80;;
76409;SDS011;65238;42.662;23.280;2024-01-11T08:34:56;56.40;;;26.85;;
76409;SDS011;65238;42.662;23.280;2024-01-11T08:37:25;62.63;;;28.55;;
76409;SDS011;65238;42.662;23.280;2024-01-11T08:39:51;63.42;;;27.17;;
76409;SDS011;65238;42.662;23.280;2024-01-11T08:42:16;67.93;;;28.75;;
76409;SDS011;65238;42.662;23.280;2024-01-11T08:44:42;64.88;;;31.08;;
76409;SDS011;65238;42.662;23.280;2024-01-11T08:47:08;64.18;;;30.35;;
76409;SDS011;65238;42.662;23.280;2024-01-11T08:49:38;67.75;;;29.67;;
76409;SDS011;65238;42.662;23.280;2024-01-11T08:52:04;61.10;;;28.23;;
76409;SDS011;65238;42.662;23.280;2024-01-11T08:54:30;70.45;;;32.92;;
76409;SDS011;65238;42.662;23.280;2024-01-11T08:56:57;71.82;;;33.25;;
76409;SDS011;65238;42.662;23.280;2024-01-11T08:59:23;64.82;;;31.45;;
76409;SDS011;65238;42.662;23.280;2024-01-11T09:01:50;72.60;;;33.33;;
76409;SDS011;65238;42.662;23.280;2024-01-11T09:04:16;69.65;;;32.28;;
76409;SDS011;65238;42.662;23.280;2024-01-11T09:06:42;71.22;;;31.70;;
76409;SDS011;65238;42.662;23.280;2024-01-11T09:09:08;74.72;;;33.60;;
76409;SDS011;65238;42.662;23.280;2024-01-11T09:11:35;71.13;;;31.95;;
76409;SDS011;65238;42.662;23.280;2024-01-11T09:14:01;70.93;;;33.08;;
76409;SDS011;65238;42.662;23.280;2024-01-11T09:16:30;66.70;;;32.88;;
76409;SDS011;65238;42.662;23.280;2024-01-11T09:18:56;69.95;;;33.58;;
76409;SDS011;65238;42.662;23.280;2024-01-11T09:21:22;72.22;;;33.63;;
76409;SDS011;65238;42.662;23.280;2024-01-11T09:23:47;76.80;;;34.67;;
76409;SDS011;65238;42.662;23.280;2024-01-11T09:26:13;70.30;;;32.50;;
76409;SDS011;65238;42.662;23.280;2024-01-11T09:28:38;71.97;;;32.63;;
76409;SDS011;65238;42.662;23.280;2024-01-11T09:31:04;78.13;;;34.85;;
76409;SDS011;65238;42.662;23.280;2024-01-11T09:33:29;63.58;;;31.42;;
76409;SDS011;65238;42.662;23.280;2024-01-11T09:35:55;73.43;;;33.58;;
76409;SDS011;65238;42.662;23.280;2024-01-11T09:38:24;78.78;;;33.67;;
76409;SDS011;65238;42.662;23.280;2024-01-11T09:40:53;66.38;;;31.92;;
76409;SDS011;65238;42.662;23.280;2024-01-11T09:43:34;64.75;;;32.85;;
76409;SDS011;65238;42.662;23.280;2024-01-11T09:46:03;64.38;;;30.85;;
76409;SDS011;65238;42.662;23.280;2024-01-11T09:48:31;69.45;;;31.42;;
76409;SDS011;65238;42.662;23.280;2024-01-11T09:50:58;62.05;;;30.27;;
76409;SDS011;65238;42.662;23.280;2024-01-11T09:53:24;65.95;;;30.35;;
76409;SDS011;65238;42.662;23.280;2024-01-11T09:55:51;70.18;;;30.80;;
76409;SDS011;65238;42.662;23.280;2024-01-11T09:58:18;62.28;;;29.55;;
76409;SDS011;65238;42.662;23.280;2024-01-11T10:00:44;72.25;;;32.40;;
76409;SDS011;65238;42.662;23.280;2024-01-11T10:03:13;66.47;;;30.75;;
76409;SDS011;65238;42.662;23.280;2024-01-11T10:05:39;77.30;;;31.35;;
76409;SDS011;65238;42.662;23.280;2024-01-11T10:08:06;65.90;;;30.95;;
76409;SDS011;65238;42.662;23.280;2024-01-11T10:10:31;64.78;;;31.50;;
76409;SDS011;65238;42.662;23.280;2024-01-11T10:12:57;69.47;;;31.02;;
76409;SDS011;65238;42.662;23.280;2024-01-11T10:15:25;65.45;;;30.83;;
76409;SDS011;65238;42.662;23.280;2024-01-11T10:17:51;65.97;;;30.58;;
76409;SDS011;65238;42.662;23.280;2024-01-11T10:20:17;67.10;;;30.77;;
76409;SDS011;65238;42.662;23.280;2024-01-11T10:22:43;67.03;;;31.75;;
76409;SDS011;65238;42.662;23.280;2024-01-11T10:25:12;66.90;;;32.72;;
76409;SDS011;65238;42.662;23.280;2024-01-11T10:27:39;75.82;;;33.20;;
76409;SDS011;65238;42.662;23.280;2024-01-11T10:30:08;71.78;;;34.55;;
76409;SDS011;65238;42.662;23.280;2024-01-11T10:32:35;71.38;;;35.55;;
76409;SDS011;65238;42.662;23.280;2024-01-11T10:35:01;68.63;;;33.70;;
76409;SDS011;65238;42.662;23.280;2024-01-11T10:37:30;67.25;;;32.92;;
76409;SDS011;65238;42.662;23.280;2024-01-11T10:39:57;66.10;;;31.55;;
76409;SDS011;65238;42.662;23.280;2024-01-11T10:42:24;73.60;;;34.03;;
76409;SDS011;65238;42.662;23.280;2024-01-11T10:44:53;75.63;;;34.00;;
76409;SDS011;65238;42.662;23.280;2024-01-11T10:47:24;76.90;;;35.60;;
76409;SDS011;65238;42.662;23.280;2024-01-11T10:49:50;74.05;;;35.22;;
76409;SDS011;65238;42.662;23.280;2024-01-11T10:52:17;76.40;;;36.88;;
76409;SDS011;65238;42.662;23.280;2024-01-11T10:54:48;79.33;;;37.17;;
76409;SDS011;65238;42.662;23.280;2024-01-11T10:57:15;70.07;;;36.15;;
76409;SDS011;65238;42.662;23.280;2024-01-11T10:59:41;75.85;;;34.90;;
76409;SDS011;65238;42.662;23.280;2024-01-11T11:02:06;94.20;;;44.13;;
76409;SDS011;65238;42.662;23.280;2024-01-11T11:04:37;69.50;;;34.65;;
76409;SDS011;65238;42.662;23.280;2024-01-11T11:07:04;63.63;;;33.38;;
76409;SDS011;65238;42.662;23.280;2024-01-11T11:09:50;68.80;;;31.83;;
76409;SDS011;65238;42.662;23.280;2024-01-11T11:12:37;71.47;;;34.25;;
76409;SDS011;65238;42.662;23.280;2024-01-11T11:15:05;65.78;;;31.10;;
76409;SDS011;65238;42.662;23.280;2024-01-11T11:17:32;70.00;;;31.02;;
76409;SDS011;65238;42.662;23.280;2024-01-11T11:19:58;75.53;;;31.63;;
76409;SDS011;65238;42.662;23.280;2024-01-11T11:22:26;67.43;;;31.25;;
76409;SDS011;65238;42.662;23.280;2024-01-11T11:25:10;68.63;;;32.88;;
76409;SDS011;65238;42.662;23.280;2024-01-11T11:27:37;69.55;;;32.53;;
76409;SDS011;65238;42.662;23.280;2024-01-11T11:30:05;67.30;;;30.48;;
76409;SDS011;65238;42.662;23.280;2024-01-11T11:35:35;66.82;;;30.75;;
76409;SDS011;65238;42.662;23.280;2024-01-11T11:38:23;64.40;;;31.73;;
76409;SDS011;65238;42.662;23.280;2024-01-11T11:40:53;70.78;;;31.20;;
76409;SDS011;65238;42.662;23.280;2024-01-11T11:43:44;64.13;;;30.95;;
76409;SDS011;65238;42.662;23.280;2024-01-11T11:46:16;58.50;;;26.65;;
76409;SDS011;65238;42.662;23.280;2024-01-11T11:48:53;53.78;;;25.48;;
76409;SDS011;65238;42.662;23.280;2024-01-11T11:51:20;48.90;;;24.55;;
76409;SDS011;65238;42.662;23.280;2024-01-11T11:53:50;59.47;;;25.83;;
76409;SDS011;65238;42.662;23.280;2024-01-11T11:56:20;47.38;;;20.55;;
76409;SDS011;65238;42.662;23.280;2024-01-11T11:58:49;41.25;;;20.27;;
76409;SDS011;65238;42.662;23.280;2024-01-11T12:01:20;42.90;;;18.88;;
76409;SDS011;65238;42.662;23.280;2024-01-11T12:04:09;37.83;;;19.10;;
76409;SDS011;65238;42.662;23.280;2024-01-11T12:06:53;38.92;;;18.15;;
76409;SDS011;65238;42.662;23.280;2024-01-11T12:09:35;32.30;;;16.38;;
76409;SDS011;65238;42.662;23.280;2024-01-11T12:12:19;29.98;;;16.20;;
76409;SDS011;65238;42.662;23.280;2024-01-11T12:15:19;30.05;;;14.15;;
76409;SDS011;65238;42.662;23.280;2024-01-11T12:18:02;32.33;;;14.75;;
76409;SDS011;65238;42.662;23.280;2024-01-11T12:20:33;27.90;;;14.90;;
76409;SDS011;65238;42.662;23.280;2024-01-11T12:23:02;35.08;;;15.88;;
76409;SDS011;65238;42.662;23.280;2024-01-11T12:25:31;32.03;;;15.90;;
76409;SDS011;65238;42.662;23.280;2024-01-11T12:28:02;32.20;;;14.40;;
76409;SDS011;65238;42.662;23.280;2024-01-11T12:30:30;35.50;;;14.40;;
76409;SDS011;65238;42.662;23.280;2024-01-11T12:32:58;29.38;;;13.68;;
76409;SDS011;65238;42.662;23.280;2024-01-11T12:35:30;24.38;;;12.00;;
76409;SDS011;65238;42.662;23.280;2024-01-11T12:37:59;19.08;;;10.65;;
76409;SDS011;65238;42.662;23.280;2024-01-11T12:40:32;17.00;;;8.55;;
76409;SDS011;65238;42.662;23.280;2024-01-11T12:43:02;11.80;;;7.10;;
76409;SDS011;65238;42.662;23.280;2024-01-11T12:45:31;15.23;;;6.80;;
76409;SDS011;65238;42.662;23.280;2024-01-11T12:48:07;10.43;;;5.55;;
76409;SDS011;65238;42.662;23.280;2024-01-11T12:50:35;12.35;;;7.05;;
76409;SDS011;65238;42.662;23.280;2024-01-11T12:53:12;13.88;;;7.22;;
76409;SDS011;65238;42.662;23.280;2024-01-11T12:56:02;11.20;;;5.72;;
76409;SDS011;65238;42.662;23.280;2024-01-11T12:58:33;10.88;;;6.57;;
76409;SDS011;65238;42.662;23.280;2024-01-11T13:00:59;11.88;;;5.97;;
76409;SDS011;65238;42.662;23.280;2024-01-11T13:03:31;9.70;;;5.40;;
76409;SDS011;65238;42.662;23.280;2024-01-11T13:06:07;8.45;;;4.75;;
76409;SDS011;65238;42.662;23.280;2024-01-11T13:08:36;9.68;;;5.20;;
76409;SDS011;65238;42.662;23.280;2024-01-11T13:11:14;10.50;;;5.43;;
76409;SDS011;65238;42.662;23.280;2024-01-11T13:13:49;8.43;;;4.97;;
76409;SDS011;65238;42.662;23.280;2024-01-11T13:16:26;10.48;;;4.45;;
76409;SDS011;65238;42.662;23.280;2024-01-11T13:18:52;10.52;;;5.07;;
76409;SDS011;65238;42.662;23.280;2024-01-11T13:21:20;9.32;;;4.65;;
76409;SDS011;65238;42.662;23.280;2024-01-11T13:23:45;8.75;;;5.15;;
76409;SDS011;65238;42.662;23.280;2024-01-11T13:26:11;9.63;;;5.25;;
76409;SDS011;65238;42.662;23.280;2024-01-11T13:28:37;8.70;;;4.90;;
76409;SDS011;65238;42.662;23.280;2024-01-11T13:31:03;10.57;;;5.13;;
76409;SDS011;65238;42.662;23.280;2024-01-11T13:33:32;11.50;;;5.93;;
76409;SDS011;65238;42.662;23.280;2024-01-11T13:36:04;9.98;;;5.35;;
76409;SDS011;65238;42.662;23.280;2024-01-11T13:38:51;10.50;;;5.78;;
76409;SDS011;65238;42.662;23.280;2024-01-11T13:41:20;11.07;;;5.68;;
76409;SDS011;65238;42.662;23.280;2024-01-11T13:43:49;10.07;;;6.35;;
76409;SDS011;65238;42.662;23.280;2024-01-11T13:46:15;9.13;;;5.45;;
76409;SDS011;65238;42.662;23.280;2024-01-11T13:48:44;12.68;;;5.85;;
76409;SDS011;65238;42.662;23.280;2024-01-11T13:51:12;9.50;;;5.60;;
76409;SDS011;65238;42.662;23.280;2024-01-11T13:53:39;9.23;;;5.20;;
76409;SDS011;65238;42.662;23.280;2024-01-11T13:56:05;9.05;;;4.93;;
76409;SDS011;65238;42.662;23.280;2024-01-11T13:58:31;10.40;;;5.60;;
76409;SDS011;65238;42.662;23.280;2024-01-11T14:00:57;8.60;;;4.70;;
76409;SDS011;65238;42.662;23.280;2024-01-11T14:03:26;9.82;;;5.18;;
76409;SDS011;65238;42.662;23.280;2024-01-11T14:05:55;11.23;;;6.10;;
76409;SDS011;65238;42.662;23.280;2024-01-11T14:08:28;10.98;;;5.60;;
76409;SDS011;65238;42.662;23.280;2024-01-11T14:10:54;10.15;;;5.97;;
76409;SDS011;65238;42.662;23.280;2024-01-11T14:13:20;10.70;;;5.45;;
76409;SDS011;65238;42.662;23.280;2024-01-11T14:15:53;11.38;;;6.10;;
76409;SDS011;65238;42.662;23.280;2024-01-11T14:18:23;11.10;;;5.95;;